Time;durP1;ratioP1;P1;durP2;ratioP2;P2;SDS_P1;SDS_P2;PMS_P1;PMS_P2;Temp;Humidity;BMP_temperature;BMP_pressure;BME280_temperature;BME280_humidity;BME280_pressure;Samples;Min_cycle;Max_cycle;Signal;HPM_P1;HPM_P2
2023/10/06 00:00:47;;;;;;;7.30;1.95;;;14.50;99.90;;;;;;5050679;28;20185;-74
2023/10/06 00:03:14;;;;;;;9.07;1.90;;;14.40;99.90;;;;;;5050822;28;20170;-74
2023/10/06 00:05:44;;;;;;;5.50;1.73;;;14.60;99.90;;;;;;5050883;28;20180;-74
2023/10/06 00:08:11;;;;;;;5.10;1.73;;;14.50;99.90;;;;;;5050466;28;20714;-74
2023/10/06 00:10:44;;;;;;;4.68;1.80;;;14.50;99.90;;;;;;5050669;28;20177;-74
2023/10/06 00:13:20;;;;;;;8.55;1.98;;;14.60;99.90;;;;;;5050635;28;20636;-74
2023/10/06 00:15:49;;;;;;;7.18;2.17;;;14.20;99.90;;;;;;5032549;28;20219;-74
2023/10/06 00:18:26;;;;;;;8.50;1.77;;;14.50;99.90;;;;;;5030629;28;20197;-74
2023/10/06 00:20:56;;;;;;;8.95;2.20;;;14.50;99.90;;;;;;5029425;28;20209;-74
2023/10/06 00:23:23;;;;;;;8.52;2.33;;;14.90;99.90;;;;;;5030625;28;20673;-74
2023/10/06 00:25:57;;;;;;;7.53;1.92;;;14.50;99.90;;;;;;5030974;28;20228;-73
2023/10/06 00:28:32;;;;;;;11.13;2.50;;;14.60;99.90;;;;;;5030526;28;20190;-74
2023/10/06 00:31:06;;;;;;;7.03;1.90;;;14.80;99.90;;;;;;5030575;28;20257;-73
2023/10/06 00:33:32;;;;;;;9.60;2.05;;;14.50;99.90;;;;;;5030592;28;20185;-73
2023/10/06 00:36:12;;;;;;;7.57;2.30;;;14.60;99.90;;;;;;5030502;28;20170;-74
2023/10/06 00:38:45;;;;;;;6.78;1.80;;;14.50;99.90;;;;;;5030459;28;20174;-74
2023/10/06 00:41:14;;;;;;;6.75;2.20;;;14.40;99.90;;;;;;5030564;28;20664;-74
2023/10/06 00:43:40;;;;;;;10.80;2.10;;;14.60;99.90;;;;;;5030494;28;20621;-74
2023/10/06 00:46:10;;;;;;;8.00;1.95;;;14.60;99.90;;;;;;5030212;28;20222;-74
2023/10/06 00:48:44;;;;;;;6.75;2.15;;;14.60;99.90;;;;;;5030637;28;20182;-73
2023/10/06 00:51:12;;;;;;;6.53;2.00;;;14.70;99.90;;;;;;5030489;28;20161;-74
2023/10/06 00:53:40;;;;;;;9.18;1.90;;;14.70;99.90;;;;;;5030378;28;20177;-73
2023/10/06 00:56:15;;;;;;;9.10;2.10;;;14.70;99.90;;;;;;5030416;28;20166;-75
2023/10/06 00:58:41;;;;;;;6.47;1.88;;;14.70;99.90;;;;;;5030024;28;20227;-75
2023/10/06 01:01:16;;;;;;;7.15;1.88;;;14.70;99.90;;;;;;5030205;28;20170;-74
2023/10/06 01:03:44;;;;;;;6.75;1.98;;;14.60;99.90;;;;;;5030400;28;20252;-73
2023/10/06 01:06:15;;;;;;;9.65;2.13;;;14.80;99.90;;;;;;5031712;28;20177;-74
2023/10/06 01:08:45;;;;;;;7.95;2.20;;;14.70;99.90;;;;;;5033767;28;20646;-74
2023/10/06 01:11:12;;;;;;;6.35;1.92;;;14.70;99.90;;;;;;5033770;28;20174;-74
2023/10/06 01:13:52;;;;;;;11.68;2.13;;;14.80;99.90;;;;;;5034113;28;20174;-74
2023/10/06 01:16:18;;;;;;;8.82;2.15;;;14.80;99.90;;;;;;5053861;28;20218;-74
2023/10/06 01:18:43;;;;;;;6.38;1.90;;;14.70;99.90;;;;;;5053690;28;20252;-75
2023/10/06 01:21:17;;;;;;;7.63;2.00;;;;;;;;;;5053481;28;20173;-74
2023/10/06 01:23:46;;;;;;;6.05;1.77;;;14.60;99.90;;;;;;5053502;28;20674;-74
2023/10/06 01:26:13;;;;;;;9.95;1.88;;;14.30;99.90;;;;;;5052219;28;20185;-74
2023/10/06 01:28:45;;;;;;;4.47;1.30;;;;;;;;;;5053420;28;20272;-74
2023/10/06 01:31:12;;;;;;;8.30;1.92;;;;;;;;;;5053540;28;20708;-74
2023/10/06 01:33:38;;;;;;;8.77;1.67;;;;;;;;;;5052301;28;20564;-74
2023/10/06 01:36:13;;;;;;;9.00;1.88;;;14.60;99.90;;;;;;5053488;28;20642;-74
2023/10/06 01:38:41;;;;;;;8.88;2.08;;;14.70;99.90;;;;;;5053198;28;20181;-74
2023/10/06 01:41:08;;;;;;;7.25;1.90;;;14.50;99.90;;;;;;5053318;28;20183;-73
2023/10/06 01:43:34;;;;;;;5.35;1.70;;;14.60;99.90;;;;;;5053110;28;20648;-74
2023/10/06 01:45:59;;;;;;;12.05;1.70;;;14.40;99.90;;;;;;5052984;28;20283;-74
2023/10/06 01:48:30;;;;;;;9.55;2.55;;;;;;;;;;5052882;28;20178;-74
2023/10/06 01:50:56;;;;;;;5.05;1.88;;;;;;;;;;5052998;28;20234;-74
2023/10/06 01:53:22;;;;;;;6.82;1.67;;;14.50;99.90;;;;;;5052965;28;20189;-74
2023/10/06 01:55:51;;;;;;;8.65;2.00;;;14.20;99.90;;;;;;5053006;28;20189;-74
2023/10/06 01:58:17;;;;;;;7.03;1.90;;;14.50;99.90;;;;;;5051464;28;20640;-74
2023/10/06 02:00:47;;;;;;;9.07;2.10;;;14.20;99.90;;;;;;5052767;28;20315;-74
2023/10/06 02:03:16;;;;;;;7.10;1.90;;;14.40;99.90;;;;;;5052781;28;20213;-74
2023/10/06 02:05:43;;;;;;;6.72;2.10;;;14.10;99.90;;;;;;5052767;28;20522;-75
2023/10/06 02:08:21;;;;;;;9.98;1.85;;;14.30;99.90;;;;;;5052617;28;20338;-74
2023/10/06 02:10:50;;;;;;;8.65;2.00;;;;;;;;;;5052755;28;20230;-74
2023/10/06 02:13:22;;;;;;;6.30;1.88;;;;;;;;;;5051196;28;20177;-74
2023/10/06 02:15:58;;;;;;;7.47;2.10;;;14.50;99.90;;;;;;5034237;28;20205;-74
2023/10/06 02:18:35;;;;;;;13.25;2.50;;;14.20;99.90;;;;;;5032311;28;20192;-74
2023/10/06 02:21:04;;;;;;;4.25;1.60;;;14.10;99.90;;;;;;5032592;28;20172;-74
2023/10/06 02:23:30;;;;;;;5.32;1.75;;;14.20;99.90;;;;;;5032734;28;20178;-74
2023/10/06 02:25:55;;;;;;;7.88;2.08;;;;;;;;;;5032338;28;20582;-74
2023/10/06 02:28:21;;;;;;;4.57;1.70;;;;;;;;;;5032006;28;20228;-74
2023/10/06 02:30:51;;;;;;;6.68;1.88;;;14.70;99.90;;;;;;5032324;28;20170;-74
2023/10/06 02:33:17;;;;;;;6.63;1.92;;;14.60;99.90;;;;;;5032237;28;20680;-74
2023/10/06 02:35:46;;;;;;;6.80;2.03;;;14.40;99.90;;;;;;5032416;28;20174;-74
2023/10/06 02:38:12;;;;;;;8.35;1.90;;;14.50;99.90;;;;;;5032328;28;20656;-74
2023/10/06 02:40:48;;;;;;;6.63;1.88;;;14.50;99.90;;;;;;5032141;28;20178;-75
2023/10/06 02:43:19;;;;;;;8.73;2.17;;;14.30;99.90;;;;;;5032347;28;20188;-74
2023/10/06 02:45:45;;;;;;;6.15;1.88;;;14.30;99.90;;;;;;5032014;28;20280;-73
2023/10/06 02:48:15;;;;;;;9.43;2.20;;;;;;;;;;5031926;28;20209;-73
2023/10/06 02:50:45;;;;;;;6.13;1.75;;;14.30;99.90;;;;;;5031935;28;20182;-73
2023/10/06 02:53:14;;;;;;;6.28;1.88;;;14.10;99.90;;;;;;5031905;28;20185;-73
2023/10/06 02:55:44;;;;;;;7.75;1.80;;;14.20;99.90;;;;;;5030431;28;20176;-73
2023/10/06 02:58:30;;;;;;;4.43;1.75;;;14.30;99.90;;;;;;5031777;28;20190;-73
2023/10/06 03:00:59;;;;;;;6.53;1.70;;;14.20;99.90;;;;;;5030382;28;20184;-73
2023/10/06 03:03:28;;;;;;;4.47;1.90;;;14.10;99.90;;;;;;5031801;28;20176;-73
2023/10/06 03:05:56;;;;;;;5.45;1.73;;;14.30;99.90;;;;;;5031672;28;20180;-74
2023/10/06 03:08:27;;;;;;;6.93;1.88;;;14.50;99.90;;;;;;5031713;28;20210;-73
2023/10/06 03:10:53;;;;;;;7.15;1.70;;;14.20;99.90;;;;;;5031775;28;20183;-73
2023/10/06 03:13:35;;;;;;;8.38;2.00;;;14.20;99.90;;;;;;5031685;28;20641;-73
2023/10/06 03:16:02;;;;;;;6.93;1.90;;;;;;;;;;5031565;28;20204;-74
2023/10/06 03:18:28;;;;;;;7.85;1.83;;;14.20;99.90;;;;;;5031270;28;20174;-74
2023/10/06 03:21:04;;;;;;;5.32;1.70;;;14.30;99.90;;;;;;5031648;28;20182;-73
2023/10/06 03:23:32;;;;;;;7.45;1.70;;;14.30;99.90;;;;;;5031549;28;20209;-74
2023/10/06 03:25:58;;;;;;;7.15;1.70;;;14.10;99.90;;;;;;5031476;28;20178;-73
2023/10/06 03:29:02;;;;;;;5.57;1.65;;;14.20;99.90;;;;;;5030329;28;20263;-73
2023/10/06 03:33:49;;;;;;;5.38;1.75;;;14.10;99.90;;;;;;5031346;28;20235;-73
2023/10/06 03:36:26;;;;;;;4.05;1.60;;;14.20;99.90;;;;;;5031254;28;20205;-75
2023/10/06 03:39:06;;;;;;;7.18;1.60;;;14.10;99.90;;;;;;5031157;28;20166;-74
2023/10/06 03:41:32;;;;;;;5.90;1.92;;;14.00;99.90;;;;;;5031246;28;20219;-75
2023/10/06 03:44:03;;;;;;;4.88;1.70;;;14.10;99.90;;;;;;5031128;28;20174;-74
2023/10/06 03:46:36;;;;;;;6.45;1.77;;;14.20;99.90;;;;;;5030833;28;20423;-74
2023/10/06 03:49:03;;;;;;;7.68;2.08;;;;;;;;;;5031057;28;20251;-75
2023/10/06 03:51:29;;;;;;;6.25;1.85;;;14.10;99.90;;;;;;5029724;28;20217;-74
2023/10/06 03:53:56;;;;;;;5.97;1.90;;;;;;;;;;5030921;28;20201;-75
2023/10/06 03:56:22;;;;;;;8.07;1.75;;;14.20;99.90;;;;;;5030952;28;20158;-74
2023/10/06 03:58:48;;;;;;;7.22;2.03;;;14.30;99.90;;;;;;5030697;28;20176;-75
2023/10/06 04:01:20;;;;;;;6.45;1.88;;;13.90;99.90;;;;;;5030965;28;20176;-75
2023/10/06 04:03:47;;;;;;;8.23;1.98;;;14.10;99.90;;;;;;5030915;28;20174;-75
2023/10/06 04:06:15;;;;;;;4.93;1.70;;;13.90;99.90;;;;;;5030868;28;20240;-74
2023/10/06 04:08:45;;;;;;;8.77;2.47;;;13.90;99.90;;;;;;5031021;28;20248;-74
2023/10/06 04:11:14;;;;;;;6.70;2.00;;;14.00;99.90;;;;;;5030887;28;20174;-74
2023/10/06 04:13:40;;;;;;;4.80;1.90;;;14.10;99.90;;;;;;5031434;28;20174;-74
2023/10/06 04:16:06;;;;;;;4.38;1.65;;;14.10;99.90;;;;;;5040665;28;20220;-74
2023/10/06 04:18:32;;;;;;;4.68;1.83;;;14.10;99.90;;;;;;5030925;28;20663;-75
2023/10/06 04:20:59;;;;;;;4.22;1.52;;;14.00;99.90;;;;;;5030790;28;20170;-74
2023/10/06 04:23:24;;;;;;;6.00;1.90;;;13.90;99.90;;;;;;5029530;28;20185;-74
2023/10/06 04:25:55;;;;;;;6.93;1.80;;;14.10;99.90;;;;;;5030848;28;20174;-74
2023/10/06 04:28:25;;;;;;;5.93;1.90;;;14.20;99.90;;;;;;5030527;28;20209;-74
2023/10/06 04:30:51;;;;;;;7.43;1.77;;;;;;;;;;5030903;28;20182;-74
2023/10/06 04:33:21;;;;;;;7.93;2.22;;;14.10;99.90;;;;;;5030593;28;20190;-74
2023/10/06 04:35:52;;;;;;;6.07;1.52;;;14.30;99.90;;;;;;5030773;28;20173;-74
2023/10/06 04:38:19;;;;;;;7.50;2.35;;;14.10;99.90;;;;;;5030687;28;20168;-75
2023/10/06 04:40:46;;;;;;;7.25;1.83;;;14.20;99.90;;;;;;5033337;28;20265;-74
2023/10/06 04:43:21;;;;;;;8.70;1.90;;;;;;;;;;5033124;28;20174;-74
2023/10/06 04:45:47;;;;;;;9.63;2.25;;;14.30;99.90;;;;;;5034375;28;20249;-74
2023/10/06 04:48:14;;;;;;;6.85;1.70;;;14.00;99.90;;;;;;5034621;28;20624;-74
2023/10/06 04:50:42;;;;;;;6.22;2.10;;;14.00;99.90;;;;;;5034607;28;20200;-74
2023/10/06 04:53:08;;;;;;;5.38;1.55;;;14.10;99.90;;;;;;5034593;28;20209;-75
2023/10/06 04:55:40;;;;;;;9.02;1.70;;;14.00;99.90;;;;;;5034301;28;20625;-75
2023/10/06 04:58:09;;;;;;;10.38;2.13;;;14.00;99.90;;;;;;5034082;28;20228;-74
2023/10/06 05:00:34;;;;;;;12.77;2.05;;;14.00;99.90;;;;;;5034252;28;20174;-74
2023/10/06 05:03:05;;;;;;;4.87;1.93;;;;;;;;;;5033993;28;20174;-74
2023/10/06 05:05:34;;;;;;;7.25;2.25;;;14.00;99.90;;;;;;5034161;28;20189;-74
2023/10/06 05:08:00;;;;;;;7.57;1.77;;;13.80;99.90;;;;;;5034105;28;20205;-74
2023/10/06 05:10:26;;;;;;;8.73;2.03;;;14.00;99.90;;;;;;5034119;28;20177;-74
2023/10/06 05:12:54;;;;;;;6.13;1.83;;;14.10;99.90;;;;;;5033884;28;20174;-72
2023/10/06 05:15:33;;;;;;;8.52;1.83;;;;;;;;;;5034302;28;20181;-75
2023/10/06 05:18:00;;;;;;;4.90;1.80;;;14.00;99.90;;;;;;5033792;28;20716;-74
2023/10/06 05:20:29;;;;;;;5.65;1.77;;;14.10;99.90;;;;;;5033931;28;20169;-75
2023/10/06 05:23:02;;;;;;;9.77;2.28;;;14.00;99.90;;;;;;5033792;28;20209;-75
2023/10/06 05:25:29;;;;;;;5.57;1.70;;;14.10;99.90;;;;;;5033599;28;20158;-73
2023/10/06 05:27:59;;;;;;;8.43;1.90;;;14.10;99.90;;;;;;5033711;28;20217;-73
2023/10/06 05:30:26;;;;;;;10.10;2.03;;;14.00;99.90;;;;;;5033711;28;20174;-74
2023/10/06 05:32:52;;;;;;;6.88;2.03;;;14.00;99.90;;;;;;5033587;28;20182;-73
2023/10/06 05:35:20;;;;;;;5.97;1.67;;;13.80;99.90;;;;;;5033389;28;20166;-73
2023/10/06 05:37:46;;;;;;;10.73;2.17;;;13.90;99.90;;;;;;5033397;28;20873;-74
2023/10/06 05:40:12;;;;;;;8.55;2.00;;;13.90;99.90;;;;;;5033199;28;20544;-73
2023/10/06 05:42:40;;;;;;;7.28;2.00;;;13.90;99.90;;;;;;5033327;28;20174;-73
2023/10/06 05:45:15;;;;;;;8.05;1.85;;;13.90;99.90;;;;;;5033259;28;20307;-74
2023/10/06 05:47:48;;;;;;;6.75;1.88;;;13.80;99.90;;;;;;5033164;28;20212;-73
2023/10/06 05:50:26;;;;;;;5.35;2.13;;;13.90;99.90;;;;;;5033410;28;20197;-74
2023/10/06 05:52:58;;;;;;;5.80;2.15;;;13.90;99.90;;;;;;5032729;28;20204;-74
2023/10/06 05:55:35;;;;;;;5.28;1.88;;;14.00;99.90;;;;;;5033129;28;20296;-74
2023/10/06 05:58:01;;;;;;;6.80;1.88;;;14.00;99.90;;;;;;5033107;28;20187;-73
2023/10/06 06:00:31;;;;;;;11.25;1.90;;;13.90;99.90;;;;;;5032902;28;20165;-74
2023/10/06 06:02:58;;;;;;;6.65;1.80;;;13.90;99.90;;;;;;5032720;28;20189;-73
2023/10/06 06:05:26;;;;;;;9.02;1.70;;;14.10;99.90;;;;;;5033253;28;20174;-73
2023/10/06 06:07:51;;;;;;;6.05;1.58;;;14.10;99.90;;;;;;5033098;28;20217;-73
2023/10/06 06:10:18;;;;;;;7.45;2.55;;;13.60;99.90;;;;;;5033177;28;20326;-73
2023/10/06 06:12:45;;;;;;;8.07;2.23;;;;;;;;;;5032767;28;20224;-75
2023/10/06 06:15:12;;;;;;;5.13;2.03;;;14.10;99.90;;;;;;5032463;28;20679;-74
2023/10/06 06:17:38;;;;;;;7.45;2.35;;;13.80;99.90;;;;;;5039896;28;20181;-73
2023/10/06 06:20:07;;;;;;;10.27;2.17;;;13.90;99.90;;;;;;5052440;28;20189;-73
2023/10/06 06:22:37;;;;;;;6.43;2.03;;;13.80;99.90;;;;;;5039743;28;20178;-73
2023/10/06 06:25:05;;;;;;;7.10;2.10;;;13.90;99.90;;;;;;5032532;28;20625;-73
2023/10/06 06:27:32;;;;;;;10.55;2.17;;;13.70;99.90;;;;;;5032208;28;20213;-73
2023/10/06 06:29:58;;;;;;;8.52;2.13;;;15.20;99.90;;;;;;5032092;28;20166;-73
2023/10/06 06:32:25;;;;;;;5.57;2.45;;;13.90;99.90;;;;;;5032547;28;20170;-73
2023/10/06 06:34:51;;;;;;;10.45;2.30;;;13.90;99.90;;;;;;5045302;28;20188;-74
2023/10/06 06:37:17;;;;;;;6.03;2.05;;;13.90;99.90;;;;;;5050521;28;20254;-73
2023/10/06 06:39:44;;;;;;;5.88;1.60;;;13.80;99.90;;;;;;5052151;28;20547;-74
2023/10/06 06:42:10;;;;;;;6.90;2.40;;;13.80;99.90;;;;;;5051958;28;20196;-74
2023/10/06 06:44:36;;;;;;;4.03;1.80;;;13.90;99.90;;;;;;5051496;28;20212;-73
2023/10/06 06:47:03;;;;;;;11.05;2.13;;;13.70;99.90;;;;;;5051449;28;20574;-73
2023/10/06 06:49:29;;;;;;;9.17;2.20;;;13.90;99.90;;;;;;5050226;28;20180;-73
2023/10/06 06:51:58;;;;;;;8.32;2.55;;;13.90;99.90;;;;;;5051471;28;20574;-73
2023/10/06 06:54:24;;;;;;;3.33;1.90;;;14.00;99.90;;;;;;5051696;28;20252;-73
2023/10/06 06:56:50;;;;;;;7.65;2.20;;;14.00;99.90;;;;;;5051915;28;20165;-74
2023/10/06 06:59:17;;;;;;;5.85;1.90;;;;;;;;;;5051535;28;20223;-74
2023/10/06 07:01:43;;;;;;;9.75;2.20;;;14.10;99.90;;;;;;5051546;28;20165;-73
2023/10/06 07:04:09;;;;;;;6.60;1.80;;;;;;;;;;5050562;28;20224;-73
2023/10/06 07:06:35;;;;;;;6.18;2.40;;;14.20;99.90;;;;;;5051396;28;20631;-73
2023/10/06 07:09:00;;;;;;;5.00;1.88;;;14.20;99.90;;;;;;5051514;28;20204;-74
2023/10/06 07:11:27;;;;;;;4.65;1.73;;;14.30;99.90;;;;;;5037171;28;20590;-75
2023/10/06 07:13:55;;;;;;;11.63;2.30;;;14.50;99.90;;;;;;5031325;28;20201;-74
2023/10/06 07:16:24;;;;;;;4.57;1.80;;;14.30;99.90;;;;;;5031300;28;20178;-75
2023/10/06 07:18:50;;;;;;;9.60;1.67;;;14.50;99.90;;;;;;5031299;28;20170;-73
2023/10/06 07:21:17;;;;;;;5.72;1.90;;;14.60;99.90;;;;;;5031397;28;20671;-74
2023/10/06 07:23:43;;;;;;;6.38;1.80;;;14.60;99.90;;;;;;5031300;28;20276;-74
2023/10/06 07:26:13;;;;;;;4.75;1.65;;;14.70;99.90;;;;;;5031237;28;20257;-73
2023/10/06 07:28:39;;;;;;;4.55;1.65;;;14.80;99.90;;;;;;5031153;28;20186;-74
2023/10/06 07:31:12;;;;;;;9.55;2.30;;;14.80;99.90;;;;;;5031167;28;20675;-74
2023/10/06 07:33:43;;;;;;;7.60;1.88;;;14.90;99.90;;;;;;5031281;28;20407;-73
2023/10/06 07:36:13;;;;;;;5.43;1.95;;;14.90;99.90;;;;;;5031019;28;20166;-73
2023/10/06 07:38:42;;;;;;;8.10;1.77;;;15.00;99.90;;;;;;5031037;28;20166;-72
2023/10/06 07:41:08;;;;;;;6.25;1.90;;;15.10;99.90;;;;;;5030905;28;20162;-73
2023/10/06 07:43:33;;;;;;;5.15;1.58;;;15.30;99.90;;;;;;5029584;28;20479;-74
2023/10/06 07:46:07;;;;;;;5.07;1.63;;;16.20;99.90;;;;;;5030644;28;20217;-73
2023/10/06 07:48:36;;;;;;;4.57;1.90;;;15.40;99.90;;;;;;5031021;28;20304;-74
2023/10/06 07:51:03;;;;;;;9.90;1.88;;;15.50;99.90;;;;;;5030852;28;20651;-74
2023/10/06 07:53:29;;;;;;;6.22;1.80;;;15.60;99.90;;;;;;5030873;28;20173;-74
2023/10/06 07:56:06;;;;;;;6.30;1.65;;;15.60;99.90;;;;;;5029379;28;20490;-74
2023/10/06 07:58:33;;;;;;;5.28;2.00;;;15.80;99.90;;;;;;5030786;28;20176;-74
2023/10/06 08:01:02;;;;;;;4.78;1.80;;;15.70;99.90;;;;;;5031000;28;20174;-74
2023/10/06 08:03:28;;;;;;;6.03;1.67;;;15.80;99.90;;;;;;5031481;28;20193;-73
2023/10/06 08:05:55;;;;;;;8.45;1.80;;;15.80;99.90;;;;;;5030944;28;20231;-74
2023/10/06 08:08:21;;;;;;;3.45;1.60;;;15.90;99.90;;;;;;5030750;28;20587;-74
2023/10/06 08:10:49;;;;;;;4.18;1.90;;;16.00;99.90;;;;;;5039344;28;20173;-74
2023/10/06 08:13:15;;;;;;;4.55;1.70;;;16.10;99.90;;;;;;5050860;28;20250;-74
2023/10/06 08:15:44;;;;;;;6.70;1.83;;;17.50;99.90;;;;;;5053301;28;20214;-75
2023/10/06 08:18:12;;;;;;;4.32;1.52;;;17.20;99.90;;;;;;5054747;28;20185;-74
2023/10/06 08:20:40;;;;;;;8.45;1.80;;;17.60;99.90;;;;;;5054643;28;20169;-74
2023/10/06 08:23:07;;;;;;;3.65;1.83;;;17.40;99.90;;;;;;5054639;28;20648;-74
2023/10/06 08:25:34;;;;;;;10.75;2.20;;;16.90;99.90;;;;;;5054741;28;20183;-74
2023/10/06 08:28:04;;;;;;;8.27;1.85;;;17.00;99.90;;;;;;5054318;28;20235;-74
2023/10/06 08:30:32;;;;;;;7.22;2.10;;;16.70;99.90;;;;;;5053134;28;20204;-74
2023/10/06 08:32:59;;;;;;;6.32;2.20;;;16.80;99.90;;;;;;5054330;28;20644;-74
2023/10/06 08:35:26;;;;;;;9.10;2.03;;;17.20;99.90;;;;;;5054283;28;20165;-74
2023/10/06 08:37:52;;;;;;;6.88;1.88;;;17.40;99.90;;;;;;5054415;28;20171;-75
2023/10/06 08:40:22;;;;;;;5.10;1.83;;;17.40;99.90;;;;;;5052842;28;20162;-75
2023/10/06 08:42:59;;;;;;;6.50;2.08;;;17.20;99.90;;;;;;5054450;28;20276;-75
2023/10/06 08:45:27;;;;;;;5.15;1.73;;;17.20;99.90;;;;;;5053011;28;20710;-74
2023/10/06 08:47:58;;;;;;;5.18;1.63;;;17.50;99.90;;;;;;5054370;28;20731;-74
2023/10/06 08:50:29;;;;;;;6.95;1.90;;;17.20;99.90;;;;;;5054452;28;20364;-74
2023/10/06 08:53:00;;;;;;;9.13;2.03;;;17.80;99.90;;;;;;5052870;28;20670;-74
2023/10/06 08:55:27;;;;;;;7.50;1.83;;;17.70;99.90;;;;;;5054104;28;20551;-74
2023/10/06 08:57:54;;;;;;;7.88;1.70;;;17.60;99.90;;;;;;5054012;28;20629;-74
2023/10/06 09:00:24;;;;;;;8.43;2.20;;;17.70;99.90;;;;;;5053725;28;20706;-74
2023/10/06 09:02:54;;;;;;;12.45;2.85;;;17.80;99.90;;;;;;5053886;28;20169;-74
2023/10/06 09:05:23;;;;;;;5.22;1.90;;;18.10;99.90;;;;;;5054171;28;20219;-74
2023/10/06 09:08:00;;;;;;;5.50;1.80;;;18.00;99.90;;;;;;5052690;28;20212;-75
2023/10/06 09:10:27;;;;;;;8.95;2.08;;;18.10;99.90;;;;;;5053868;28;20165;-72
2023/10/06 09:13:02;;;;;;;4.65;1.80;;;17.80;99.90;;;;;;5054062;28;20326;-74
2023/10/06 09:15:29;;;;;;;7.00;2.00;;;17.80;99.90;;;;;;5053818;28;20179;-75
2023/10/06 09:17:56;;;;;;;5.30;1.58;;;18.20;99.90;;;;;;5053627;28;20216;-74
2023/10/06 09:20:36;;;;;;;9.60;2.20;;;18.40;99.90;;;;;;5053700;28;20177;-73
2023/10/06 09:23:06;;;;;;;9.02;2.33;;;18.30;99.90;;;;;;5053568;28;20650;-73
2023/10/06 09:25:45;;;;;;;5.00;1.80;;;18.10;99.90;;;;;;5053433;28;20173;-73
2023/10/06 09:28:16;;;;;;;7.88;2.00;;;18.30;99.90;;;;;;5053071;28;20292;-73
2023/10/06 09:30:50;;;;;;;6.38;1.80;;;18.40;99.90;;;;;;5053579;28;20175;-73
2023/10/06 09:33:16;;;;;;;6.25;1.80;;;18.50;99.90;;;;;;5053436;28;20181;-73
2023/10/06 09:35:43;;;;;;;7.95;2.10;;;19.80;99.90;;;;;;5052189;28;20178;-73
2023/10/06 09:38:17;;;;;;;10.50;2.20;;;18.50;99.90;;;;;;5053208;28;20270;-73
2023/10/06 09:40:44;;;;;;;6.10;1.70;;;18.70;99.90;;;;;;5053402;28;20176;-73
2023/10/06 09:43:15;;;;;;;3.92;1.50;;;18.30;99.90;;;;;;5053084;28;20178;-73
2023/10/06 09:45:42;;;;;;;11.13;1.90;;;17.70;99.90;;;;;;5052895;28;20213;-74
2023/10/06 09:48:13;;;;;;;7.53;1.70;;;17.90;99.90;;;;;;5053028;28;20698;-73
2023/10/06 09:50:42;;;;;;;6.38;1.73;;;18.10;99.90;;;;;;5053182;28;20173;-73
2023/10/06 09:53:12;;;;;;;6.15;1.67;;;18.00;99.90;;;;;;5053449;28;20187;-74
2023/10/06 09:55:40;;;;;;;4.53;1.95;;;18.40;99.90;;;;;;5052952;28;20539;-72
2023/10/06 09:58:07;;;;;;;6.47;1.88;;;18.30;99.90;;;;;;5052725;28;20184;-73
2023/10/06 10:00:39;;;;;;;9.27;2.47;;;18.50;99.90;;;;;;5052895;28;20192;-74
2023/10/06 10:03:06;;;;;;;5.97;2.03;;;18.60;99.90;;;;;;5052925;28;20192;-74
2023/10/06 10:05:32;;;;;;;8.13;2.15;;;18.70;99.90;;;;;;5052958;28;20257;-73
2023/10/06 10:07:59;;;;;;;5.63;2.00;;;19.00;99.90;;;;;;5052679;28;20308;-74
2023/10/06 10:10:27;;;;;;;5.68;1.70;;;18.90;99.90;;;;;;5052666;28;20222;-72
2023/10/06 10:13:31;;;;;;;5.72;1.73;;;19.00;99.90;;;;;;5052606;28;20223;-72
2023/10/06 10:16:15;;;;;;;7.60;1.90;;;19.10;99.90;;;;;;5052902;28;20180;-72
2023/10/06 10:18:49;;;;;;;5.75;1.63;;;19.20;99.90;;;;;;5052521;28;20173;-72
2023/10/06 10:21:16;;;;;;;6.03;2.13;;;19.50;99.90;;;;;;5052233;28;20205;-73
2023/10/06 10:23:43;;;;;;;6.95;1.90;;;19.50;99.90;;;;;;5052462;28;20165;-73
2023/10/06 10:26:45;;;;;;;4.32;1.58;;;19.80;99.90;;;;;;5052675;28;20162;-73
2023/10/06 10:29:17;;;;;;;5.38;1.67;;;20.70;99.90;;;;;;5040324;28;20727;-74
2023/10/06 10:31:51;;;;;;;3.58;1.65;;;20.60;99.90;;;;;;5052385;28;20248;-74
2023/10/06 10:34:25;;;;;;;4.65;1.58;;;20.10;99.90;;;;;;5052426;28;20277;-73
2023/10/06 10:36:53;;;;;;;9.75;1.85;;;20.20;99.90;;;;;;5044289;28;20178;-73
2023/10/06 10:39:19;;;;;;;5.72;1.75;;;20.00;56.10;;;;;;5032901;28;20162;-74
2023/10/06 10:41:46;;;;;;;5.53;1.67;;;19.50;99.90;;;;;;5043323;28;20181;-73
2023/10/06 10:44:14;;;;;;;7.68;1.55;;;19.70;99.90;;;;;;5051723;28;20211;-73
2023/10/06 10:46:46;;;;;;;8.10;2.08;;;19.70;99.90;;;;;;5053173;28;20763;-73
2023/10/06 10:49:13;;;;;;;7.50;2.25;;;19.90;1.00;;;;;;5052482;28;20359;-73
2023/10/06 10:52:02;;;;;;;4.85;1.70;;;20.10;1.00;;;;;;5050684;28;20176;-72
2023/10/06 10:54:31;;;;;;;7.70;1.85;;;20.20;1.00;;;;;;5050627;28;20177;-73
2023/10/06 10:57:05;;;;;;;6.03;1.75;;;20.20;1.00;;;;;;5050517;28;20165;-75
2023/10/06 11:00:12;;;;;;;5.30;1.83;;;20.40;1.00;;;;;;5051859;28;20202;-75
2023/10/06 11:02:49;;;;;;;5.80;1.60;;;21.40;1.00;;;;;;5048699;28;20193;-74
2023/10/06 11:05:20;;;;;;;3.13;1.45;;;21.10;1.00;;;;;;5051633;28;20173;-76
2023/10/06 11:07:55;;;;;;;6.65;1.85;;;21.60;1.00;;;;;;5051455;28;20209;-75
2023/10/06 11:10:23;;;;;;;6.60;2.10;;;21.80;1.00;;;;;;5051825;28;20169;-75
2023/10/06 11:12:54;;;;;;;4.88;1.80;;;22.80;99.90;;;;;;5051667;28;20749;-74
2023/10/06 11:15:26;;;;;;;5.20;1.70;;;24.20;99.90;;;;;;5051584;28;20190;-75
2023/10/06 11:17:58;;;;;;;8.02;1.65;;;24.80;1.00;;;;;;5051552;28;20174;-76
2023/10/06 11:20:33;;;;;;;9.48;1.60;;;23.90;1.00;;;;;;5051486;28;20177;-76
2023/10/06 11:23:00;;;;;;;5.18;1.83;;;23.60;99.90;;;;;;5050157;28;20184;-76
2023/10/06 11:25:27;;;;;;;4.82;1.70;;;23.80;1.00;;;;;;5051372;28;20188;-76
2023/10/06 11:27:56;;;;;;;4.68;1.50;;;22.30;1.00;;;;;;5049942;28;20215;-75
2023/10/06 11:30:23;;;;;;;7.38;1.55;;;21.60;1.00;;;;;;5051269;28;20173;-75
2023/10/06 11:32:50;;;;;;;6.82;1.45;;;21.60;55.10;;;;;;5051320;28;20177;-75
2023/10/06 11:35:17;;;;;;;3.50;1.52;;;20.90;1.00;;;;;;5051214;28;20165;-75
2023/10/06 11:37:43;;;;;;;2.47;1.60;;;20.60;1.00;;;;;;5049933;28;20222;-75
2023/10/06 11:40:09;;;;;;;6.63;1.90;;;20.50;1.00;;;;;;5049755;28;20269;-75
2023/10/06 11:42:41;;;;;;;4.97;1.88;;;20.90;1.00;;;;;;5049856;28;20612;-74
2023/10/06 11:45:24;;;;;;;9.35;2.03;;;21.70;99.90;;;;;;5050793;28;20529;-75
2023/10/06 11:47:51;;;;;;;4.47;1.70;;;21.60;1.00;;;;;;5051050;28;20291;-75
2023/10/06 11:50:32;;;;;;;9.20;1.98;;;21.40;1.00;;;;;;5049021;28;20636;-75
2023/10/06 11:52:59;;;;;;;4.82;1.50;;;21.70;99.90;;;;;;5051008;28;20172;-75
2023/10/06 11:55:35;;;;;;;5.35;1.95;;;20.80;1.00;;;;;;5050949;28;20169;-75
2023/10/06 11:58:04;;;;;;;7.35;1.67;;;21.00;1.00;;;;;;5050760;28;20191;-75
2023/10/06 12:00:39;;;;;;;4.75;1.60;;;21.10;99.90;;;;;;5050656;28;20173;-75
2023/10/06 12:03:06;;;;;;;9.25;1.75;;;21.30;1.00;;;;;;5050938;28;20173;-75
2023/10/06 12:05:32;;;;;;;8.93;2.42;;;21.30;1.00;;;;;;5049470;28;20648;-75
2023/10/06 12:08:05;;;;;;;6.57;1.80;;;21.60;10.60;;;;;;5051049;28;20224;-75
2023/10/06 12:10:32;;;;;;;4.97;1.70;;;21.80;99.90;;;;;;5050776;28;20169;-75
2023/10/06 12:12:59;;;;;;;4.43;1.50;;;21.60;1.00;;;;;;5050866;28;20181;-75
2023/10/06 12:15:29;;;;;;;2.63;1.45;;;21.70;1.00;;;;;;5050750;28;20554;-75
2023/10/06 12:17:56;;;;;;;6.07;1.58;;;;;;;;;;5050646;28;20185;-75
2023/10/06 12:20:24;;;;;;;3.90;1.77;;;23.30;99.90;;;;;;5050735;28;20205;-75
2023/10/06 12:22:50;;;;;;;4.95;1.73;;;23.70;1.00;;;;;;5050823;28;20165;-75
2023/10/06 12:25:16;;;;;;;7.32;2.00;;;23.60;1.00;;;;;;5050658;28;20455;-75
2023/10/06 12:27:43;;;;;;;5.35;1.60;;;23.60;99.90;;;;;;5050495;28;20274;-75
2023/10/06 12:30:13;;;;;;;5.32;1.95;;;25.00;1.00;;;;;;5050738;28;20181;-75
2023/10/06 12:32:38;;;;;;;5.65;1.63;;;24.20;1.00;;;;;;5050483;28;20183;-74
2023/10/06 12:35:05;;;;;;;6.00;1.77;;;25.80;99.90;;;;;;5050633;28;20173;-74
2023/10/06 12:37:40;;;;;;;5.25;1.60;;;26.20;1.00;;;;;;5050727;28;20178;-75
2023/10/06 12:40:11;;;;;;;6.28;2.10;;;25.40;76.20;;;;;;5050554;28;20185;-74
2023/10/06 12:42:38;;;;;;;5.88;2.00;;;23.90;99.90;;;;;;5050540;28;20656;-74
2023/10/06 12:45:07;;;;;;;5.22;1.70;;;23.60;1.00;;;;;;5050215;28;20236;-75
2023/10/06 12:47:33;;;;;;;9.90;4.32;;;24.10;1.00;;;;;;5050622;28;20219;-75
2023/10/06 12:50:05;;;;;;;6.93;2.45;;;24.00;1.00;;;;;;5049226;28;20173;-74
2023/10/06 12:52:32;;;;;;;6.80;2.72;;;23.50;1.00;;;;;;5047610;28;20257;-75
2023/10/06 12:54:59;;;;;;;5.10;2.70;;;23.80;1.00;;;;;;5033137;28;20687;-74
2023/10/06 12:57:25;;;;;;;7.47;2.28;;;23.70;1.00;;;;;;5030436;28;20185;-73
2023/10/06 12:59:51;;;;;;;7.35;1.90;;;23.20;1.00;;;;;;5030219;28;20167;-75
2023/10/06 13:02:24;;;;;;;7.50;1.73;;;22.70;1.00;;;;;;5033710;28;20189;-75
2023/10/06 13:04:51;;;;;;;8.20;1.85;;;23.90;1.00;;;;;;5034118;28;20161;-75
2023/10/06 13:07:16;;;;;;;7.80;1.92;;;21.90;1.00;;;;;;5033902;28;20546;-75
2023/10/06 13:09:42;;;;;;;3.65;1.70;;;21.60;99.90;;;;;;5033873;28;20174;-73